createdAt,value
2022-12-18T00:00:53.853Z,19.95
2022-12-18T00:11:04.026Z,20.73
2022-12-18T00:21:11.488Z,19.40
2022-12-18T00:31:16.849Z,19.70
2022-12-18T00:41:19.496Z,20.52
2022-12-18T00:51:22.862Z,23.15
2022-12-18T01:01:24.859Z,22.50
2022-12-18T01:11:28.257Z,20.15
2022-12-18T01:21:30.239Z,16.60
2022-12-18T01:31:35.018Z,16.77
2022-12-18T01:41:37.584Z,18.08
2022-12-18T01:51:40.961Z,15.77
2022-12-18T02:01:43.134Z,15.57
2022-12-18T02:11:54.446Z,15.70
2022-12-18T02:22:18.637Z,16.67
2022-12-18T02:32:26.217Z,13.93
2022-12-18T02:42:29.461Z,14.13
2022-12-18T02:52:42.459Z,15.23
2022-12-18T03:02:49.536Z,15.35
2022-12-18T03:12:59.844Z,14.90
2022-12-18T03:23:07.602Z,15.73
2022-12-18T03:33:16.317Z,15.35
2022-12-18T03:43:24.296Z,16.02
2022-12-18T03:53:35.009Z,13.43
2022-12-18T04:03:38.964Z,14.70
2022-12-18T04:13:44.090Z,14.68
2022-12-18T04:23:46.154Z,13.30
2022-12-18T04:33:49.432Z,13.02
2022-12-18T04:43:51.302Z,14.68
2022-12-18T04:53:54.985Z,15.38
2022-12-18T05:03:56.969Z,16.00
2022-12-18T05:14:00.277Z,15.68
2022-12-18T05:24:02.195Z,15.60
2022-12-18T05:34:05.537Z,17.10
2022-12-18T05:44:07.452Z,17.40
2022-12-18T05:54:10.755Z,17.85
2022-12-18T06:04:13.074Z,16.33
2022-12-18T06:14:16.379Z,16.38
2022-12-18T06:24:18.503Z,16.92
2022-12-18T06:34:21.808Z,15.60
2022-12-18T06:44:23.711Z,16.38
2022-12-18T06:54:27.277Z,15.15
2022-12-18T07:04:29.989Z,15.02
2022-12-18T07:14:33.340Z,15.68
2022-12-18T07:24:35.382Z,16.88
2022-12-18T07:34:39.326Z,12.55
2022-12-18T07:44:41.416Z,14.90
2022-12-18T07:54:44.792Z,17.65
2022-12-18T08:04:46.728Z,16.65
2022-12-18T08:14:49.976Z,16.75
2022-12-18T08:24:52.023Z,15.48
2022-12-18T08:34:55.376Z,16.17
2022-12-18T08:44:57.295Z,16.88
2022-12-18T08:55:00.568Z,15.43
2022-12-18T09:05:02.493Z,15.18
2022-12-18T09:15:07.048Z,17.77
2022-12-18T09:25:09.056Z,16.88
2022-12-18T09:35:12.593Z,18.35
2022-12-18T09:45:15.992Z,18.40
2022-12-18T09:55:25.327Z,16.80
2022-12-18T10:05:35.069Z,17.27
2022-12-18T10:15:46.193Z,15.17
2022-12-18T10:25:55.039Z,17.60
2022-12-18T10:35:58.407Z,16.63
2022-12-18T10:46:06.510Z,16.75
2022-12-18T10:56:10.364Z,15.45
2022-12-18T11:06:14.633Z,16.45
2022-12-18T11:16:21.166Z,14.13
2022-12-18T11:26:35.532Z,14.68
2022-12-18T11:36:41.524Z,16.80
2022-12-18T11:46:48.905Z,16.73
2022-12-18T11:56:56.549Z,16.52
2022-12-18T12:07:12.992Z,16.45
2022-12-18T12:17:38.506Z,17.05
2022-12-18T12:27:49.835Z,16.58
2022-12-18T12:38:05.358Z,16.45
2022-12-18T12:48:14.904Z,13.02
2022-12-18T12:58:27.625Z,15.87
2022-12-18T13:19:46.010Z,17.33
2022-12-18T13:29:48.547Z,12.25
2022-12-18T13:39:51.842Z,15.55
2022-12-18T13:49:54.131Z,11.70
2022-12-18T13:59:57.975Z,13.27
2022-12-18T14:10:12.115Z,12.95
2022-12-18T14:30:26.856Z,11.48
2022-12-18T14:40:30.256Z,11.43
2022-12-18T14:50:32.223Z,10.70
2022-12-18T15:00:42.266Z,11.05
2022-12-18T15:10:48.916Z,12.03
2022-12-18T15:20:54.191Z,10.73
2022-12-18T15:31:07.435Z,12.27
2022-12-18T15:41:14.539Z,11.07
2022-12-18T15:51:19.080Z,9.30
2022-12-18T16:01:24.667Z,9.45
2022-12-18T16:11:28.618Z,8.32
2022-12-18T16:21:34.098Z,7.45
2022-12-18T16:31:36.516Z,6.55
2022-12-18T16:41:39.909Z,6.80
2022-12-18T16:51:47.776Z,4.45
2022-12-18T17:01:52.631Z,6.72
2022-12-18T17:11:54.958Z,4.97
2022-12-18T17:21:58.340Z,5.10
2022-12-18T17:32:00.419Z,6.22
2022-12-18T17:42:04.178Z,4.90
2022-12-18T17:52:07.416Z,3.90
2022-12-18T18:02:14.070Z,5.10
2022-12-18T18:12:16.118Z,4.20
2022-12-18T18:22:19.690Z,3.45
2022-12-18T18:32:22.485Z,4.78
2022-12-18T18:42:25.764Z,4.05
2022-12-18T18:52:27.690Z,3.47
2022-12-18T19:02:31.094Z,3.63
2022-12-18T19:12:34.050Z,4.85
2022-12-18T19:22:37.364Z,3.65
2022-12-18T19:32:39.262Z,4.68
2022-12-18T19:42:42.584Z,5.15
2022-12-18T19:52:44.546Z,4.65
2022-12-18T20:02:47.906Z,4.10
2022-12-18T20:12:50.311Z,4.68
2022-12-18T20:23:33.240Z,4.30
2022-12-18T20:33:37.021Z,3.25
2022-12-18T20:43:40.604Z,3.47
2022-12-18T20:53:43.541Z,2.30
2022-12-18T21:03:47.368Z,3.42
2022-12-18T21:13:49.365Z,2.10
2022-12-18T21:23:52.763Z,2.78
2022-12-18T21:34:00.957Z,2.00
2022-12-18T21:44:47.749Z,1.83
2022-12-18T21:54:49.653Z,1.70
2022-12-18T22:04:52.992Z,1.80
2022-12-18T22:14:55.105Z,1.50
2022-12-18T22:24:58.413Z,1.95
2022-12-18T22:35:07.999Z,1.25
2022-12-18T22:45:14.025Z,1.20
2022-12-18T22:55:16.086Z,1.00
2022-12-18T23:05:19.360Z,1.55
2022-12-18T23:15:26.014Z,1.15
2022-12-18T23:25:31.274Z,2.13
2022-12-18T23:35:33.195Z,1.98
2022-12-18T23:45:38.656Z,4.68
2022-12-18T23:55:41.881Z,1.83
